Itapirapua Paulista, Brazil
Current Conditions -  °F | °C
As of 10:00 PM on Saturday 22 Nov 2014 (Local Time) from SBBI Reporting Station
Few Clouds Few Clouds  
Wind Chill: 70°   Ceiling: Unl
Heat Index: 70°   Visibility: 6mi
Dew Point: 61°   Wind: 6mph
Humidity: 73%   Direction: 300°WNW
Pressure: 29.97"   Gusts: NA
Location:  24.57°S, 49.17°W
Report Text: SBBI 230000Z 30005KT 9999 FEW025 21/16 Q1015
Loading
Personal Weather Stations






























Interactive Weather Map New forecast layout! Learn more

10-Day Weather Forecast

Advertisements
Track Severe Weather on mobile